Observation data for Turkey on 12/08/2018      Previous  Date       Current Mesonet Observations  Soil Data  Daily Summary Page  Observations in Plain Language
KTUR 080600Z 33008KT M01/M01 A3032 RMK A01 T10071011  RH  098%=      5-min Rain = 0
KTUR 080605Z 33008KT M01/M01 A3032 RMK A01 T10071011  RH  098%=      5-min Rain = 0
KTUR 080610Z 33009KT M01/M01 A3032 RMK A01 T10071012  RH  098%=      5-min Rain = 0
KTUR 080615Z 33009KT M01/M01 A3031 RMK A01 T10071012  RH  098%=      5-min Rain = 0
KTUR 080620Z 33009KT M01/M01 A3031 RMK A01 T10081012  RH  098%=      5-min Rain = 0
KTUR 080625Z 33009KT M01/M01 A3031 RMK A01 T10081013  RH  098%=      5-min Rain = 0
KTUR 080630Z 34008KT M01/M01 A3031 RMK A01 T10081012  RH  098%=      5-min Rain = 0
KTUR 080635Z 34009KT M01/M01 A3031 RMK A01 T10081013  RH  098%=      5-min Rain = 0
KTUR 080640Z 34008KT M01/M01 A3031 RMK A01 T10081012  RH  098%=      5-min Rain = 0
KTUR 080645Z 34008KT M01/M01 A3031 RMK A01 T10081012  RH  098%=      5-min Rain = 0
KTUR 080650Z 34009KT M01/M01 A303 RMK A01 T10081012  RH  098%=      5-min Rain = 0
KTUR 080655Z 34008KT M01/M01 A303 RMK A01 T10081012  RH  098%=      5-min Rain = 0
KTUR 080700Z 34008KT M01/M01 A303 RMK A01 T10071011  RH  098%=      5-min Rain = 0
KTUR 080705Z 34008KT M01/M01 A303 RMK A01 T10071011  RH  098%=      5-min Rain = 0
KTUR 080710Z 34008KT M01/M01 A303 RMK A01 T10071011  RH  098%=      5-min Rain = 0
KTUR 080715Z 33008KT M01/M01 A303 RMK A01 T10071010  RH  098%=      5-min Rain = 0
KTUR 080720Z 33009KT M01/M01 A303 RMK A01 T10071011  RH  098%=      5-min Rain = 0
KTUR 080725Z 33009KT M01/M01 A303 RMK A01 T10071011  RH  098%=      5-min Rain = 0
KTUR 080730Z 33008KT M01/M01 A303 RMK A01 T10061010  RH  098%=      5-min Rain = 0
KTUR 080735Z 33009KT M01/M01 A303 RMK A01 T10061010  RH  098%=      5-min Rain = 0
KTUR 080740Z 33009KT M01/M01 A303 RMK A01 T10061010  RH  098%=      5-min Rain = 0
KTUR 080745Z 34008KT M01/M01 A303 RMK A01 T10051010  RH  098%=      5-min Rain = 0
KTUR 080750Z 34008KT M01/M01 A303 RMK A01 T10051009  RH  098%=      5-min Rain = 0
KTUR 080755Z 34008KT M01/M01 A303 RMK A01 T10051009  RH  098%=      5-min Rain = 0
KTUR 080800Z 34007KT M01/M01 A303 RMK A01 T10051009  RH  098%=      5-min Rain = 0
KTUR 080805Z 34006KT M00/M01 A303 RMK A01 T10041008  RH  098%=      5-min Rain = 0
KTUR 080810Z 34008KT M01/M01 A303 RMK A01 T10051009  RH  098%=      5-min Rain = 0
KTUR 080815Z 34007KT M01/M01 A303 RMK A01 T10051009  RH  098%=      5-min Rain = 0
KTUR 080820Z 34007KT M01/M01 A303 RMK A01 T10061009  RH  098%=      5-min Rain = 0
KTUR 080825Z 34006KT M01/M01 A303 RMK A01 T10061010  RH  098%=      5-min Rain = 0
KTUR 080830Z 33005KT M01/M01 A303 RMK A01 T10061009  RH  098%=      5-min Rain = 0
KTUR 080835Z 34006KT M01/M01 A303 RMK A01 T10061010  RH  098%=      5-min Rain = 0
KTUR 080840Z 34005KT M01/M01 A303 RMK A01 T10061010  RH  098%=      5-min Rain = 0
KTUR 080845Z 34005KT M01/M01 A303 RMK A01 T10061010  RH  098%=      5-min Rain = 0
KTUR 080850Z 34006KT M01/M01 A303 RMK A01 T10071011  RH  098%=      5-min Rain = 0
KTUR 080855Z 34005KT M01/M01 A303 RMK A01 T10071011  RH  098%=      5-min Rain = 0
KTUR 080900Z 34005KT M01/M01 A303 RMK A01 T10071011  RH  098%=      5-min Rain = 0
KTUR 080905Z 34005KT M01/M01 A3029 RMK A01 T10071011  RH  098%=      5-min Rain = 0
KTUR 080910Z 35005KT M01/M01 A3029 RMK A01 T10081012  RH  098%=      5-min Rain = 0
KTUR 080915Z 35005KT M01/M01 A3029 RMK A01 T10081012  RH  098%=      5-min Rain = 0
KTUR 080920Z 35005KT M01/M01 A3029 RMK A01 T10081012  RH  098%=      5-min Rain = 0
KTUR 080925Z 35004KT M01/M01 A3029 RMK A01 T10081012  RH  098%=      5-min Rain = 0
KTUR 080930Z 35004KT M01/M01 A3029 RMK A01 T10081012  RH  098%=      5-min Rain = 0
KTUR 080935Z 34005KT M01/M01 A3028 RMK A01 T10091012  RH  098%=      5-min Rain = 0
KTUR 080940Z 34005KT M01/M01 A3028 RMK A01 T10091013  RH  099%=      5-min Rain = 0
KTUR 080945Z 34005KT M01/M01 A3028 RMK A01 T10101013  RH  099%=      5-min Rain = 0
KTUR 080950Z 34005KT M01/M01 A3028 RMK A01 T10101014  RH  099%=      5-min Rain = 0
KTUR 080955Z 34005KT M01/M01 A3028 RMK A01 T10101014  RH  099%=      5-min Rain = 0
KTUR 081000Z 34005KT M01/M01 A3028 RMK A01 T10111014  RH  099%=      5-min Rain = 0
KTUR 081005Z 34005KT M01/M02 A3028 RMK A01 T10111015  RH  099%=      5-min Rain = 0
KTUR 081010Z 34005KT M01/M02 A3028 RMK A01 T10121015  RH  099%=      5-min Rain = 0
KTUR 081015Z 34006KT M01/M02 A3028 RMK A01 T10131016  RH  099%=      5-min Rain = 0
KTUR 081020Z 34005KT M01/M02 A3028 RMK A01 T10131016  RH  099%=      5-min Rain = 0
KTUR 081025Z 34004KT M01/M02 A3028 RMK A01 T10141017  RH  099%=      5-min Rain = 0
KTUR 081030Z 33005KT M01/M02 A3028 RMK A01 T10141017  RH  099%=      5-min Rain = 0
KTUR 081035Z 34005KT M02/M02 A3028 RMK A01 T10151019  RH  099%=      5-min Rain = 0
KTUR 081040Z 34004KT M02/M02 A3028 RMK A01 T10151018  RH  099%=      5-min Rain = 0
KTUR 081045Z 34004KT M02/M02 A3028 RMK A01 T10151018  RH  099%=      5-min Rain = 0
KTUR 081050Z 34004KT M01/M02 A3027 RMK A01 T10141018  RH  099%=      5-min Rain = 0
KTUR 081055Z 34006KT M02/M02 A3027 RMK A01 T10161020  RH  099%=      5-min Rain = 0
KTUR 081100Z 34005KT M02/M02 A3027 RMK A01 T10181021  RH  098%=      5-min Rain = 0
KTUR 081105Z 34005KT M02/M02 A3027 RMK A01 T10171021  RH  099%=      5-min Rain = 0
KTUR 081110Z 33005KT M02/M02 A3027 RMK A01 T10171021  RH  098%=      5-min Rain = 0
KTUR 081115Z 34005KT M02/M02 A3027 RMK A01 T10171021  RH  098%=      5-min Rain = 0
KTUR 081120Z 34006KT M02/M02 A3027 RMK A01 T10181022  RH  098%=      5-min Rain = 0
KTUR 081125Z 34005KT M02/M02 A3028 RMK A01 T10181022  RH  098%=      5-min Rain = 0
KTUR 081130Z 33004KT M02/M02 A3028 RMK A01 T10181021  RH  098%=      5-min Rain = 0
KTUR 081135Z 33005KT M02/M02 A3028 RMK A01 T10181022  RH  098%=      5-min Rain = 0
KTUR 081140Z 33004KT M02/M02 A3028 RMK A01 T10171021  RH  098%=      5-min Rain = 0
KTUR 081145Z 33005KT M02/M02 A3028 RMK A01 T10181022  RH  098%=      5-min Rain = 0
KTUR 081150Z 33004KT M02/M02 A3028 RMK A01 T10181022  RH  098%=      5-min Rain = 0
KTUR 081155Z 32005KT M02/M02 A3028 RMK A01 T10181022  RH  098%=      5-min Rain = 0
KTUR 081200Z 33005KT M02/M02 A3028 RMK A01 T10181022  RH  098%=      5-min Rain = 0
KTUR 081205Z 33004KT M02/M02 A3028 RMK A01 T10191022  RH  098%=      5-min Rain = 0
KTUR 081210Z 33005KT M02/M02 A3029 RMK A01 T10191022  RH  098%=      5-min Rain = 0
KTUR 081215Z 33004KT M02/M02 A3029 RMK A01 T10191022  RH  098%=      5-min Rain = 0
KTUR 081220Z 33004KT M02/M02 A3029 RMK A01 T10181022  RH  098%=      5-min Rain = 0
KTUR 081225Z 32005KT M02/M02 A3029 RMK A01 T10191023  RH  098%=      5-min Rain = 0
KTUR 081230Z 33005KT M02/M02 A3029 RMK A01 T10191023  RH  098%=      5-min Rain = 0
KTUR 081235Z 32004KT M02/M02 A3029 RMK A01 T10191023  RH  098%=      5-min Rain = 0
KTUR 081240Z 32004KT M02/M02 A3029 RMK A01 T10191022  RH  098%=      5-min Rain = 0
KTUR 081245Z 32004KT M02/M02 A3029 RMK A01 T10191022  RH  098%=      5-min Rain = 0
KTUR 081250Z 33005KT M02/M02 A3029 RMK A01 T10191023  RH  098%=      5-min Rain = 0
KTUR 081255Z 32005KT M02/M02 A3029 RMK A01 T10191023  RH  098%=      5-min Rain = 0
KTUR 081300Z 33005KT M02/M02 A3029 RMK A01 T10191023  RH  098%=      5-min Rain = 0
KTUR 081305Z 32004KT M02/M02 A303 RMK A01 T10191023  RH  098%=      5-min Rain = 0
KTUR 081310Z 32005KT M02/M02 A303 RMK A01 T10191023  RH  098%=      5-min Rain = 0
KTUR 081315Z 32004KT M02/M02 A303 RMK A01 T10191023  RH  098%=      5-min Rain = 0
KTUR 081320Z 32005KT M02/M02 A303 RMK A01 T10191023  RH  098%=      5-min Rain = 0
KTUR 081325Z 33005KT M02/M02 A303 RMK A01 T10191023  RH  098%=      5-min Rain = 0
KTUR 081330Z 33005KT M02/M02 A303 RMK A01 T10201024  RH  098%=      5-min Rain = 0
KTUR 081335Z 33004KT M02/M02 A303 RMK A01 T10201024  RH  098%=      5-min Rain = 0
KTUR 081340Z 33004KT M02/M02 A303 RMK A01 T10191023  RH  098%=      5-min Rain = 0
KTUR 081345Z 33004KT M02/M02 A3031 RMK A01 T10191023  RH  098%=      5-min Rain = 0
KTUR 081350Z 33004KT M02/M02 A3031 RMK A01 T10191023  RH  098%=      5-min Rain = 0
KTUR 081355Z 33004KT M02/M02 A3031 RMK A01 T10191023  RH  098%=      5-min Rain = 0
KTUR 081400Z 33004KT M02/M02 A3031 RMK A01 T10191023  RH  098%=      5-min Rain = 0
KTUR 081405Z 33004KT M02/M02 A3031 RMK A01 T10191023  RH  098%=      5-min Rain = 0
KTUR 081410Z 33004KT M02/M02 A3031 RMK A01 T10191023  RH  098%=      5-min Rain = 0
KTUR 081415Z 33004KT M02/M02 A3031 RMK A01 T10191023  RH  098%=      5-min Rain = 0
KTUR 081420Z 34004KT M02/M02 A3031 RMK A01 T10191023  RH  098%=      5-min Rain = 0
KTUR 081425Z 34004KT M02/M02 A3031 RMK A01 T10191023  RH  098%=      5-min Rain = 0
KTUR 081430Z 33004KT M02/M02 A3031 RMK A01 T10191023  RH  098%=      5-min Rain = 0
KTUR 081435Z 33003KT M02/M02 A3032 RMK A01 T10191023  RH  098%=      5-min Rain = 0
KTUR 081440Z 33003KT M02/M02 A3032 RMK A01 T10191023  RH  098%=      5-min Rain = 0
KTUR 081445Z 33003KT M02/M02 A3032 RMK A01 T10191023  RH  098%=      5-min Rain = 0
KTUR 081450Z 33003KT M02/M02 A3032 RMK A01 T10191023  RH  098%=      5-min Rain = 0
KTUR 081455Z 33003KT M02/M02 A3032 RMK A01 T10191023  RH  098%=      5-min Rain = 0
KTUR 081500Z 33003KT M02/M02 A3032 RMK A01 T10191023  RH  098%=      5-min Rain = 0
KTUR 081505Z 32003KT M02/M02 A3032 RMK A01 T10191022  RH  098%=      5-min Rain = 0
KTUR 081510Z 32002KT M02/M02 A3033 RMK A01 T10191022  RH  098%=      5-min Rain = 0
KTUR 081515Z 32002KT M02/M02 A3033 RMK A01 T10191022  RH  098%=      5-min Rain = 0
KTUR 081520Z 31002KT M02/M02 A3033 RMK A01 T10181022  RH  098%=      5-min Rain = 0
KTUR 081525Z 31002KT M02/M02 A3033 RMK A01 T10181022  RH  098%=      5-min Rain = 0
KTUR 081530Z 30002KT M02/M02 A3034 RMK A01 T10171021  RH  098%=      5-min Rain = 0
KTUR 081535Z 30002KT M02/M02 A3034 RMK A01 T10171021  RH  098%=      5-min Rain = 0
KTUR 081540Z 30002KT M02/M02 A3034 RMK A01 T10171020  RH  098%=      5-min Rain = 0
KTUR 081545Z 30002KT M02/M02 A3034 RMK A01 T10161020  RH  098%=      5-min Rain = 0
KTUR 081550Z 30002KT M02/M02 A3034 RMK A01 T10161019  RH  098%=      5-min Rain = 0
KTUR 081555Z 30002KT M02/M02 A3034 RMK A01 T10151019  RH  099%=      5-min Rain = 0
KTUR 081600Z 30002KT M02/M02 A3034 RMK A01 T10151018  RH  098%=      5-min Rain = 0
KTUR 081605Z 29002KT M01/M02 A3035 RMK A01 T10141018  RH  098%=      5-min Rain = 0
KTUR 081610Z 30002KT M01/M02 A3035 RMK A01 T10131017  RH  098%=      5-min Rain = 0
KTUR 081615Z 30002KT M01/M02 A3035 RMK A01 T10131017  RH  098%=      5-min Rain = 0
KTUR 081620Z 31002KT M01/M02 A3035 RMK A01 T10121016  RH  098%=      5-min Rain = 0
KTUR 081625Z 30002KT M01/M02 A3035 RMK A01 T10111015  RH  098%=      5-min Rain = 0
KTUR 081630Z 30002KT M01/M02 A3035 RMK A01 T10111015  RH  098%=      5-min Rain = 0
KTUR 081635Z 30002KT M01/M02 A3035 RMK A01 T10111015  RH  098%=      5-min Rain = 0
KTUR 081640Z 30002KT M01/M01 A3035 RMK A01 T10101014  RH  098%=      5-min Rain = 0
KTUR 081645Z 29002KT M01/M01 A3035 RMK A01 T10101014  RH  098%=      5-min Rain = 0
KTUR 081650Z 29002KT M01/M02 A3035 RMK A01 T10101015  RH  098%=      5-min Rain = 0
KTUR 081655Z 29002KT M01/M02 A3035 RMK A01 T10101015  RH  097%=      5-min Rain = 0
KTUR 081700Z 29002KT M01/M02 A3035 RMK A01 T10091015  RH  097%=      5-min Rain = 0
KTUR 081705Z 31002KT M01/M02 A3035 RMK A01 T10091015  RH  097%=      5-min Rain = 0
KTUR 081710Z 32002KT M01/M01 A3035 RMK A01 T10091014  RH  097%=      5-min Rain = 0
KTUR 081715Z 32002KT M01/M02 A3034 RMK A01 T10091015  RH  097%=      5-min Rain = 0
KTUR 081720Z 30002KT M01/M02 A3034 RMK A01 T10081015  RH  097%=      5-min Rain = 0
KTUR 081725Z 30003KT M01/M01 A3034 RMK A01 T10081014  RH  096%=      5-min Rain = 0
KTUR 081730Z 30003KT M01/M01 A3034 RMK A01 T10081014  RH  096%=      5-min Rain = 0
KTUR 081735Z 30003KT M01/M02 A3034 RMK A01 T10071015  RH  096%=      5-min Rain = 0
KTUR 081740Z 30003KT M01/M01 A3034 RMK A01 T10071014  RH  096%=      5-min Rain = 0
KTUR 081745Z 30003KT M01/M01 A3034 RMK A01 T10071014  RH  096%=      5-min Rain = 0
KTUR 081750Z 30003KT M01/M01 A3034 RMK A01 T10061014  RH  096%=      5-min Rain = 0
KTUR 081755Z 30003KT M01/M01 A3033 RMK A01 T10061014  RH  096%=      5-min Rain = 0
KTUR 081800Z 30002KT M01/M01 A3033 RMK A01 T10051013  RH  096%=      5-min Rain = 0.01
KTUR 081805Z 30003KT M01/M01 A3033 RMK A01 T10051013  RH  095%=      5-min Rain = 0
KTUR 081810Z 30003KT M01/M01 A3033 RMK A01 T10051014  RH  095%=      5-min Rain = 0.01
KTUR 081815Z 30003KT M01/M01 A3033 RMK A01 T10051013  RH  095%=      5-min Rain = 0
KTUR 081820Z 30003KT M01/M01 A3032 RMK A01 T10051014  RH  094%=      5-min Rain = 0.01
KTUR 081825Z 29003KT M00/M01 A3032 RMK A01 T10041014  RH  095%=      5-min Rain = 0.01
KTUR 081830Z 29003KT M00/M02 A3031 RMK A01 T10041015  RH  094%=      5-min Rain = 0
KTUR 081835Z 29003KT M00/M02 A3031 RMK A01 T10041017  RH  092%=      5-min Rain = 0.01
KTUR 081840Z 29003KT M01/M02 A3031 RMK A01 T10051021  RH  090%=      5-min Rain = 0.01
KTUR 081845Z 29003KT M00/M02 A3031 RMK A01 T10041020  RH  090%=      5-min Rain = 0
KTUR 081850Z 30003KT M00/M02 A303 RMK A01 T10041022  RH  089%=      5-min Rain = 0.01
KTUR 081855Z 30004KT M00/M02 A303 RMK A01 T10041024  RH  087%=      5-min Rain = 0.02
KTUR 081900Z 29004KT M00/M03 A303 RMK A01 T10041026  RH  086%=      5-min Rain = 0
KTUR 081905Z 29004KT M00/M03 A303 RMK A01 T10031027  RH  085%=      5-min Rain = 0.01
KTUR 081910Z 29004KT M00/M03 A303 RMK A01 T10021026  RH  085%=      5-min Rain = 0.01
KTUR 081915Z 29004KT M00/M03 A3029 RMK A01 T10021027  RH  084%=      5-min Rain = 0.01
KTUR 081920Z 30005KT M00/M03 A3029 RMK A01 T10021030  RH  082%=      5-min Rain = 0.02
KTUR 081925Z 29005KT M00/M03 A3029 RMK A01 T10021031  RH  081%=      5-min Rain = 0.01
KTUR 081930Z 29005KT M00/M03 A3029 RMK A01 T10021031  RH  081%=      5-min Rain = 0.01
KTUR 081935Z 30004KT M00/M03 A3028 RMK A01 T10011029  RH  082%=      5-min Rain = 0.01
KTUR 081940Z 29004KT M00/M03 A3028 RMK A01 T10011030  RH  082%=      5-min Rain = 0.01
KTUR 081945Z 30003KT 00/03 A3028 RMK A01 T00-00-29  RH  082%=      5-min Rain = 0.01
KTUR 081950Z 30004KT 00/03 A3028 RMK A01 T00000-31  RH  080%=      5-min Rain = 0.01
KTUR 081955Z 29004KT 00/03 A3028 RMK A01 T00000-32  RH  079%=      5-min Rain = 0.01
KTUR 082000Z 29004KT 00/M03 A3028 RMK A01 T00011033  RH  079%=      5-min Rain = 0.01
KTUR 082005Z 30004KT 00/M03 A3028 RMK A01 T00021033  RH  078%=      5-min Rain = 0.01
KTUR 082010Z 30005KT 00/M04 A3028 RMK A01 T00021036  RH  076%=      5-min Rain = 0.01
KTUR 082015Z 29004KT 00/M04 A3027 RMK A01 T00031035  RH  076%=      5-min Rain = 0.01
KTUR 082020Z 30005KT 00/M04 A3027 RMK A01 T00041035  RH  076%=      5-min Rain = 0.01
KTUR 082025Z 30004KT 01/M03 A3027 RMK A01 T00051032  RH  077%=      5-min Rain = 0
KTUR 082030Z 30005KT 01/M03 A3027 RMK A01 T00051034  RH  076%=      5-min Rain = 0.01
KTUR 082035Z 30005KT 01/M03 A3027 RMK A01 T00051034  RH  076%=      5-min Rain = 0.01
KTUR 082040Z 30004KT 01/M03 A3027 RMK A01 T00061028  RH  079%=      5-min Rain = 0.01
KTUR 082045Z 29003KT 01/M03 A3027 RMK A01 T00071025  RH  080%=      5-min Rain = 0
KTUR 082050Z 29004KT 01/M03 A3027 RMK A01 T00061026  RH  080%=      5-min Rain = 0
KTUR 082055Z 29003KT 01/M03 A3026 RMK A01 T00071028  RH  079%=      5-min Rain = 0
KTUR 082100Z 28004KT 01/M03 A3026 RMK A01 T00071029  RH  078%=      5-min Rain = 0
KTUR 082105Z 28004KT 01/M03 A3026 RMK A01 T00081028  RH  078%=      5-min Rain = 0
KTUR 082110Z 29004KT 01/M03 A3026 RMK A01 T00081026  RH  079%=      5-min Rain = 0
KTUR 082115Z 28005KT 01/M03 A3026 RMK A01 T00081027  RH  078%=      5-min Rain = 0
KTUR 082120Z 29004KT 01/M02 A3026 RMK A01 T00091024  RH  079%=      5-min Rain = 0
KTUR 082125Z 29004KT 01/M02 A3025 RMK A01 T00101023  RH  079%=      5-min Rain = 0
KTUR 082130Z 28004KT 01/M02 A3025 RMK A01 T00101023  RH  080%=      5-min Rain = 0
KTUR 082135Z 28004KT 01/M02 A3025 RMK A01 T00111022  RH  080%=      5-min Rain = 0
KTUR 082140Z 28004KT 01/M02 A3025 RMK A01 T00121021  RH  080%=      5-min Rain = 0
KTUR 082145Z 28004KT 01/M02 A3025 RMK A01 T00121023  RH  078%=      5-min Rain = 0
KTUR 082150Z 27004KT 01/M02 A3025 RMK A01 T00121024  RH  078%=      5-min Rain = 0
KTUR 082155Z 27004KT 01/M02 A3025 RMK A01 T00121021  RH  079%=      5-min Rain = 0
KTUR 082200Z 27004KT 01/M02 A3025 RMK A01 T00111021  RH  080%=      5-min Rain = 0
KTUR 082205Z 27004KT 01/M02 A3025 RMK A01 T00131019  RH  080%=      5-min Rain = 0
KTUR 082210Z 27004KT 02/M02 A3025 RMK A01 T00151022  RH  077%=      5-min Rain = 0
KTUR 082215Z 27004KT 01/M02 A3025 RMK A01 T00141022  RH  077%=      5-min Rain = 0
KTUR 082220Z 27005KT 01/M02 A3025 RMK A01 T00141023  RH  077%=      5-min Rain = 0
KTUR 082225Z 26004KT 02/M02 A3025 RMK A01 T00151022  RH  077%=      5-min Rain = 0
KTUR 082230Z 26004KT 02/M02 A3025 RMK A01 T00171021  RH  076%=      5-min Rain = 0
KTUR 082235Z 26004KT 02/M02 A3025 RMK A01 T00191023  RH  074%=      5-min Rain = 0
KTUR 082240Z 25004KT 02/M02 A3025 RMK A01 T00201021  RH  075%=      5-min Rain = 0
KTUR 082245Z 25003KT 02/M02 A3025 RMK A01 T00201021  RH  075%=      5-min Rain = 0
KTUR 082250Z 25003KT 02/M02 A3025 RMK A01 T00201019  RH  076%=      5-min Rain = 0
KTUR 082255Z 25004KT 02/M02 A3025 RMK A01 T00201019  RH  076%=      5-min Rain = 0
KTUR 082300Z 25004KT 02/M02 A3025 RMK A01 T00191020  RH  076%=      5-min Rain = 0
KTUR 082305Z 24004KT 02/M02 A3025 RMK A01 T00191019  RH  077%=      5-min Rain = 0
KTUR 082310Z 23004KT 02/M02 A3025 RMK A01 T00181019  RH  077%=      5-min Rain = 0
KTUR 082315Z 24004KT 02/M02 A3025 RMK A01 T00161018  RH  079%=      5-min Rain = 0
KTUR 082320Z 24004KT 02/M02 A3025 RMK A01 T00151018  RH  080%=      5-min Rain = 0
KTUR 082325Z 24004KT 01/M02 A3025 RMK A01 T00131017  RH  081%=      5-min Rain = 0
KTUR 082330Z 24004KT 01/M02 A3025 RMK A01 T00111018  RH  082%=      5-min Rain = 0
KTUR 082335Z 24005KT 01/M02 A3025 RMK A01 T00081018  RH  084%=      5-min Rain = 0
KTUR 082340Z 24006KT 01/M02 A3025 RMK A01 T00061018  RH  085%=      5-min Rain = 0
KTUR 082345Z 24006KT 01/M02 A3025 RMK A01 T00051020  RH  084%=      5-min Rain = 0
KTUR 082350Z 24006KT 01/M02 A3025 RMK A01 T00051021  RH  084%=      5-min Rain = 0
KTUR 082355Z 24006KT 01/M02 A3025 RMK A01 T00051022  RH  083%=      5-min Rain = 0
KTUR 090000Z 24005KT 00/M02 A3026 RMK A01 T00041022  RH  083%=      5-min Rain = 0
KTUR 090005Z 24005KT 00/M02 A3025 RMK A01 T00041023  RH  083%=      5-min Rain = 0
KTUR 090010Z 25005KT 00/M02 A3026 RMK A01 T00031023  RH  083%=      5-min Rain = 0
KTUR 090015Z 25005KT 00/M02 A3026 RMK A01 T00031024  RH  083%=      5-min Rain = 0
KTUR 090020Z 25005KT 00/M02 A3026 RMK A01 T00011024  RH  084%=      5-min Rain = 0
KTUR 090025Z 25004KT 00/02 A3026 RMK A01 T00000-24  RH  085%=      5-min Rain = 0
KTUR 090030Z 25005KT M00/M02 A3026 RMK A01 T10011024  RH  086%=      5-min Rain = 0
KTUR 090035Z 25005KT M00/M03 A3026 RMK A01 T10041025  RH  086%=      5-min Rain = 0
KTUR 090040Z 25006KT M01/M03 A3026 RMK A01 T10051026  RH  087%=      5-min Rain = 0
KTUR 090045Z 25007KT M01/M03 A3026 RMK A01 T10051026  RH  087%=      5-min Rain = 0
KTUR 090050Z 25006KT M00/M03 A3027 RMK A01 T10021026  RH  085%=      5-min Rain = 0
KTUR 090055Z 25006KT M00/M03 A3027 RMK A01 T10021027  RH  085%=      5-min Rain = 0
KTUR 090100Z 26007KT M00/M03 A3027 RMK A01 T10031027  RH  085%=      5-min Rain = 0
KTUR 090105Z 26007KT M00/M03 A3027 RMK A01 T10041027  RH  086%=      5-min Rain = 0
KTUR 090110Z 26007KT M01/M03 A3027 RMK A01 T10051026  RH  087%=      5-min Rain = 0
KTUR 090115Z 26007KT M01/M03 A3027 RMK A01 T10061026  RH  087%=      5-min Rain = 0
KTUR 090120Z 26007KT M01/M03 A3027 RMK A01 T10081027  RH  088%=      5-min Rain = 0
KTUR 090125Z 26007KT M01/M03 A3027 RMK A01 T10091028  RH  088%=      5-min Rain = 0
KTUR 090130Z 26007KT M01/M03 A3027 RMK A01 T10091029  RH  088%=      5-min Rain = 0
KTUR 090135Z 26007KT M01/M03 A3027 RMK A01 T10081030  RH  086%=      5-min Rain = 0
KTUR 090140Z 26007KT M01/M03 A3028 RMK A01 T10061032  RH  084%=      5-min Rain = 0
KTUR 090145Z 26007KT M01/M03 A3028 RMK A01 T10061032  RH  083%=      5-min Rain = 0
KTUR 090150Z 26007KT M01/M03 A3028 RMK A01 T10051033  RH  082%=      5-min Rain = 0
KTUR 090155Z 26006KT M01/M04 A3028 RMK A01 T10061035  RH  082%=      5-min Rain = 0
KTUR 090200Z 27007KT M00/M04 A3028 RMK A01 T10041036  RH  080%=      5-min Rain = 0
KTUR 090205Z 27007KT M00/M04 A3028 RMK A01 T10041037  RH  079%=      5-min Rain = 0
KTUR 090210Z 27007KT M00/M04 A3028 RMK A01 T10041037  RH  079%=      5-min Rain = 0
KTUR 090215Z 28006KT M00/M04 A3028 RMK A01 T10041039  RH  078%=      5-min Rain = 0
KTUR 090220Z 28006KT 00/M04 A3028 RMK A01 T00041042  RH  072%=      5-min Rain = 0
KTUR 090225Z 27006KT 01/M04 A3028 RMK A01 T00061044  RH  070%=      5-min Rain = 0
KTUR 090230Z 28006KT 00/M04 A3029 RMK A01 T00041044  RH  071%=      5-min Rain = 0
KTUR 090235Z 29006KT 00/M05 A3028 RMK A01 T00031045  RH  071%=      5-min Rain = 0
KTUR 090240Z 29006KT 00/M04 A3028 RMK A01 T00021044  RH  072%=      5-min Rain = 0
KTUR 090245Z 29006KT 00/M04 A3028 RMK A01 T00011044  RH  072%=      5-min Rain = 0
KTUR 090250Z 29006KT 00/04 A3028 RMK A01 T00-00-44  RH  074%=      5-min Rain = 0
KTUR 090255Z 29006KT M00/M04 A3028 RMK A01 T10041043  RH  076%=      5-min Rain = 0
KTUR 090300Z 29006KT M01/M04 A3028 RMK A01 T10071043  RH  078%=      5-min Rain = 0
KTUR 090305Z 30006KT M01/M04 A3028 RMK A01 T10071041  RH  078%=      5-min Rain = 0
KTUR 090310Z 30006KT M01/M04 A3029 RMK A01 T10081041  RH  079%=      5-min Rain = 0
KTUR 090315Z 30006KT M01/M04 A3029 RMK A01 T10101041  RH  080%=      5-min Rain = 0
KTUR 090320Z 31006KT M01/M04 A3029 RMK A01 T10111041  RH  081%=      5-min Rain = 0
KTUR 090325Z 31006KT M01/M04 A3029 RMK A01 T10101040  RH  081%=      5-min Rain = 0
KTUR 090330Z 32006KT M01/M04 A3029 RMK A01 T10101040  RH  081%=      5-min Rain = 0
KTUR 090335Z 31005KT M01/M04 A3029 RMK A01 T10101040  RH  081%=      5-min Rain = 0
KTUR 090340Z 31005KT M01/M04 A3029 RMK A01 T10101040  RH  081%=      5-min Rain = 0
KTUR 090345Z 30005KT M01/M04 A3029 RMK A01 T10111040  RH  081%=      5-min Rain = 0
KTUR 090350Z 31005KT M01/M04 A3029 RMK A01 T10111040  RH  081%=      5-min Rain = 0
KTUR 090355Z 31005KT M01/M04 A3029 RMK A01 T10101042  RH  079%=      5-min Rain = 0
KTUR 090400Z 31005KT M01/M04 A3029 RMK A01 T10071043  RH  077%=      5-min Rain = 0
KTUR 090405Z 30005KT M01/M04 A3029 RMK A01 T10081042  RH  078%=      5-min Rain = 0
KTUR 090410Z 29006KT M01/M04 A3029 RMK A01 T10081042  RH  079%=      5-min Rain = 0
KTUR 090415Z 29005KT M01/M04 A3029 RMK A01 T10081043  RH  078%=      5-min Rain = 0
KTUR 090420Z 29005KT M01/M04 A3029 RMK A01 T10071043  RH  077%=      5-min Rain = 0
KTUR 090425Z 29005KT M01/M04 A303 RMK A01 T10081044  RH  078%=      5-min Rain = 0
KTUR 090430Z 29005KT M01/M04 A303 RMK A01 T10091044  RH  078%=      5-min Rain = 0
KTUR 090435Z 29005KT M01/M04 A303 RMK A01 T10091044  RH  078%=      5-min Rain = 0
KTUR 090440Z 29005KT M01/M04 A303 RMK A01 T10101044  RH  079%=      5-min Rain = 0
KTUR 090445Z 29005KT M01/M05 A303 RMK A01 T10111045  RH  079%=      5-min Rain = 0
KTUR 090450Z 28007KT M01/M04 A303 RMK A01 T10121044  RH  079%=      5-min Rain = 0
KTUR 090455Z 29006KT M01/M05 A3031 RMK A01 T10131045  RH  080%=      5-min Rain = 0
KTUR 090500Z 28007KT M01/M05 A3031 RMK A01 T10141046  RH  080%=      5-min Rain = 0
KTUR 090505Z 28007KT M01/M05 A3031 RMK A01 T10141046  RH  080%=      5-min Rain = 0
KTUR 090510Z 29007KT M01/M05 A3031 RMK A01 T10121047  RH  078%=      5-min Rain = 0
KTUR 090515Z 29006KT M01/M05 A3031 RMK A01 T10121049  RH  077%=      5-min Rain = 0
KTUR 090520Z 29006KT M01/M05 A3031 RMK A01 T10101051  RH  075%=      5-min Rain = 0
KTUR 090525Z 29006KT M01/M05 A3032 RMK A01 T10091054  RH  072%=      5-min Rain = 0
KTUR 090530Z 30006KT M01/M06 A3031 RMK A01 T10081056  RH  071%=      5-min Rain = 0
KTUR 090535Z 29007KT M01/M06 A3032 RMK A01 T10081057  RH  070%=      5-min Rain = 0
KTUR 090540Z 30007KT M01/M06 A3032 RMK A01 T10101058  RH  071%=      5-min Rain = 0
KTUR 090545Z 30006KT M01/M06 A3032 RMK A01 T10131058  RH  072%=      5-min Rain = 0
KTUR 090550Z 30006KT M01/M06 A3031 RMK A01 T10131059  RH  072%=      5-min Rain = 0
KTUR 090555Z 31005KT M01/M06 A3031 RMK A01 T10121059  RH  071%=      5-min Rain = 0

Page generated in 0.0088 seconds.